Time;durP1;ratioP1;P1;durP2;ratioP2;P2;SDS_P1;SDS_P2;PMS_P1;PMS_P2;Temp;Humidity;BMP_temperature;BMP_pressure;BME280_temperature;BME280_humidity;BME280_pressure;Samples;Min_cycle;Max_cycle;Signal;HPM_P1;HPM_P2
2023/03/15 00:01:15;;;;;;;2.95;1.30;;;4.80;87.70;;;;;;5010848;28;20056;-81
2023/03/15 00:03:42;;;;;;;8.55;2.65;;;4.80;87.80;;;;;;5013837;28;20033;-81
2023/03/15 00:06:07;;;;;;;2.22;1.20;;;4.80;87.80;;;;;;5012265;28;20420;-80
2023/03/15 00:08:33;;;;;;;3.50;1.40;;;4.80;87.80;;;;;;4995791;28;20519;-81
2023/03/15 00:10:59;;;;;;;4.50;1.27;;;4.70;87.80;;;;;;5004112;28;20030;-80
2023/03/15 00:13:24;;;;;;;6.07;1.40;;;4.70;87.80;;;;;;4990794;28;20072;-80
2023/03/15 00:15:50;;;;;;;4.88;1.35;;;4.70;87.80;;;;;;5011805;28;20742;-79
2023/03/15 00:18:17;;;;;;;4.00;1.30;;;4.70;87.80;;;;;;4977045;28;20040;-80
2023/03/15 00:20:42;;;;;;;5.05;1.45;;;4.60;87.80;;;;;;5005901;28;20033;-80
2023/03/15 00:23:08;;;;;;;3.10;1.33;;;4.60;87.80;;;;;;5011294;28;20049;-82
2023/03/15 00:25:33;;;;;;;3.20;1.38;;;4.60;87.90;;;;;;5010583;28;20072;-78
2023/03/15 00:27:59;;;;;;;2.55;1.10;;;4.60;88.00;;;;;;4994141;28;20127;-81
2023/03/15 00:30:24;;;;;;;6.53;1.40;;;4.50;87.90;;;;;;4996674;28;20042;-80
2023/03/15 00:32:52;;;;;;;6.20;1.73;;;4.50;88.00;;;;;;5004864;28;20037;-78
2023/03/15 00:35:18;;;;;;;4.45;1.60;;;4.50;88.00;;;;;;5015161;28;20040;-81
2023/03/15 00:37:44;;;;;;;9.77;2.08;;;4.50;88.00;;;;;;4996076;28;20045;-79
2023/03/15 00:40:11;;;;;;;17.98;4.75;;;4.50;88.10;;;;;;5008182;28;20168;-81
2023/03/15 00:42:36;;;;;;;26.33;4.20;;;4.50;88.00;;;;;;5022938;28;20029;-80
2023/03/15 00:45:02;;;;;;;15.90;4.03;;;4.50;88.00;;;;;;5012273;28;20052;-80
2023/03/15 00:47:28;;;;;;;12.05;3.85;;;4.50;88.00;;;;;;5027764;28;20124;-81
2023/03/15 00:49:53;;;;;;;11.13;4.05;;;4.50;87.90;;;;;;5028238;28;20029;-82
2023/03/15 00:52:20;;;;;;;16.60;5.40;;;4.40;87.90;;;;;;5031609;28;20052;-82
2023/03/15 00:54:53;;;;;;;14.52;4.88;;;4.40;87.90;;;;;;5028655;28;20055;-79
2023/03/15 00:57:19;;;;;;;14.65;5.00;;;4.40;88.00;;;;;;4986550;28;20037;-82
2023/03/15 00:59:44;;;;;;;9.30;3.63;;;4.40;87.90;;;;;;5016457;28;20036;-80
2023/03/15 01:02:10;;;;;;;11.20;4.53;;;4.30;87.90;;;;;;5015367;28;20034;-78
2023/03/15 01:04:35;;;;;;;14.82;4.95;;;4.30;87.90;;;;;;4995810;28;20056;-79
2023/03/15 01:07:01;;;;;;;12.38;4.50;;;4.30;87.90;;;;;;5010865;28;20064;-81
2023/03/15 01:09:26;;;;;;;13.30;4.95;;;4.30;88.00;;;;;;4995709;28;20046;-80
2023/03/15 01:11:52;;;;;;;12.45;5.25;;;4.20;88.10;;;;;;5021156;28;20041;-79
2023/03/15 01:14:17;;;;;;;15.60;6.53;;;4.20;88.10;;;;;;5030021;28;20041;-79
2023/03/15 01:16:44;;;;;;;9.02;2.50;;;4.20;88.10;;;;;;5018561;28;20037;-80
2023/03/15 01:19:11;;;;;;;5.97;2.58;;;4.20;88.00;;;;;;4993856;28;20058;-81
2023/03/15 01:21:37;;;;;;;9.05;2.40;;;4.20;88.10;;;;;;4998477;28;20126;-79
2023/03/15 01:24:02;;;;;;;7.40;2.13;;;4.20;88.10;;;;;;5013501;28;20057;-80
2023/03/15 01:26:28;;;;;;;10.27;4.65;;;4.10;88.00;;;;;;4993709;28;20045;-81
2023/03/15 01:28:54;;;;;;;8.70;2.67;;;4.10;88.00;;;;;;5014872;28;20029;-77
2023/03/15 01:31:27;;;;;;;8.70;2.90;;;4.10;88.10;;;;;;4998119;28;20042;-80
2023/03/15 01:33:52;;;;;;;7.43;3.13;;;4.00;88.00;;;;;;5013337;28;20049;-80
2023/03/15 01:36:18;;;;;;;9.70;4.72;;;4.00;88.00;;;;;;5026575;28;20033;-79
2023/03/15 01:38:43;;;;;;;8.70;3.45;;;4.00;88.00;;;;;;5005840;28;20041;-80
2023/03/15 01:41:12;;;;;;;12.20;5.45;;;4.00;88.10;;;;;;4990479;28;20068;-79
2023/03/15 01:43:38;;;;;;;16.70;7.18;;;3.90;88.00;;;;;;5004389;28;20056;-80
2023/03/15 01:46:23;;;;;;;8.75;4.00;;;3.90;88.00;;;;;;5020249;28;20048;-80
2023/03/15 01:49:08;;;;;;;5.60;3.05;;;3.90;88.10;;;;;;5009774;28;20045;-80
2023/03/15 01:51:43;;;;;;;8.27;3.05;;;3.90;88.10;;;;;;5006275;28;20044;-80
2023/03/15 01:54:25;;;;;;;5.18;3.08;;;3.80;88.00;;;;;;5039191;28;20037;-80
2023/03/15 01:57:01;;;;;;;5.32;2.50;;;3.80;88.10;;;;;;5040608;28;20039;-79
2023/03/15 01:59:31;;;;;;;8.38;3.20;;;3.80;88.20;;;;;;5023647;28;20112;-77
2023/03/15 02:01:56;;;;;;;6.63;3.22;;;3.70;88.10;;;;;;4999783;28;20415;-81
2023/03/15 02:04:28;;;;;;;5.93;2.47;;;3.70;88.10;;;;;;5018664;28;20048;-82
2023/03/15 02:06:57;;;;;;;8.38;2.75;;;3.60;88.20;;;;;;5018591;28;20402;-81
2023/03/15 02:09:24;;;;;;;8.98;2.97;;;3.60;88.20;;;;;;5015095;28;20051;-80
2023/03/15 02:11:50;;;;;;;7.13;3.05;;;3.60;88.30;;;;;;4985996;28;20707;-80
2023/03/15 02:14:15;;;;;;;6.85;3.08;;;3.60;88.20;;;;;;5017890;28;20050;-82
2023/03/15 02:16:41;;;;;;;6.10;2.80;;;3.50;88.20;;;;;;4999962;28;20044;-78
2023/03/15 02:19:09;;;;;;;7.47;3.08;;;3.50;88.30;;;;;;5000329;28;20059;-78
2023/03/15 02:21:37;;;;;;;6.50;2.60;;;3.50;88.40;;;;;;5008983;28;20056;-79
2023/03/15 02:24:18;;;;;;;7.80;2.88;;;3.40;88.40;;;;;;5031114;28;20049;-79
2023/03/15 02:26:47;;;;;;;6.63;3.20;;;3.40;88.50;;;;;;5034930;28;20040;-80
2023/03/15 02:29:12;;;;;;;8.20;3.45;;;3.40;88.60;;;;;;5017150;28;20086;-80
2023/03/15 02:31:38;;;;;;;5.65;3.15;;;3.30;88.50;;;;;;5019450;28;20025;-78
2023/03/15 02:34:05;;;;;;;5.65;2.83;;;3.30;88.40;;;;;;5015173;28;20033;-78
2023/03/15 02:36:31;;;;;;;7.82;3.22;;;3.30;88.40;;;;;;4981713;28;20251;-79
2023/03/15 02:38:56;;;;;;;6.40;3.10;;;3.30;88.50;;;;;;5001167;28;20772;-80
2023/03/15 02:41:41;;;;;;;10.25;3.40;;;3.20;88.40;;;;;;4998026;28;20553;-77
2023/03/15 02:44:13;;;;;;;7.90;3.30;;;3.20;88.40;;;;;;5012856;28;20346;-79
2023/03/15 02:46:38;;;;;;;7.53;3.10;;;3.20;88.50;;;;;;5000268;28;20037;-77
2023/03/15 02:49:04;;;;;;;7.32;3.45;;;3.10;88.50;;;;;;5017020;28;20083;-79
2023/03/15 02:51:30;;;;;;;6.25;3.85;;;3.10;88.50;;;;;;5031253;28;20439;-80
2023/03/15 02:53:56;;;;;;;7.35;3.45;;;3.10;88.50;;;;;;5001816;28;20029;-81
2023/03/15 02:56:21;;;;;;;9.90;3.95;;;3.00;88.50;;;;;;5007485;28;20470;-81
2023/03/15 02:58:47;;;;;;;7.82;3.70;;;3.00;88.50;;;;;;5014278;28;20372;-78
2023/03/15 03:01:13;;;;;;;6.13;3.10;;;3.00;88.50;;;;;;5036135;28;20656;-79
2023/03/15 03:03:42;;;;;;;7.25;3.30;;;2.90;88.50;;;;;;5016716;28;20116;-81
2023/03/15 03:06:08;;;;;;;11.32;3.50;;;2.90;88.50;;;;;;5036861;28;20041;-80
2023/03/15 03:08:33;;;;;;;9.07;3.20;;;2.90;88.50;;;;;;5029268;28;20748;-80
2023/03/15 03:10:59;;;;;;;8.63;3.50;;;2.90;88.60;;;;;;5013795;28;20808;-79
2023/03/15 03:13:24;;;;;;;6.72;2.88;;;2.80;88.60;;;;;;5034022;28;20195;-81
2023/03/15 03:15:57;;;;;;;5.22;3.22;;;2.80;88.70;;;;;;5019355;28;20094;-81
2023/03/15 03:18:24;;;;;;;7.93;2.95;;;2.80;88.80;;;;;;5006608;28;20047;-79
2023/03/15 03:20:49;;;;;;;7.90;3.45;;;2.80;88.80;;;;;;5019103;28;21542;-79
2023/03/15 03:23:15;;;;;;;9.00;3.03;;;2.80;88.90;;;;;;5033832;28;20047;-79
2023/03/15 03:25:40;;;;;;;5.05;2.55;;;2.80;89.00;;;;;;5016586;28;20507;-79
2023/03/15 03:28:06;;;;;;;6.20;2.90;;;2.70;88.90;;;;;;5037282;28;20029;-79
2023/03/15 03:30:34;;;;;;;7.93;2.55;;;2.70;88.90;;;;;;5024713;28;20098;-81
2023/03/15 03:32:59;;;;;;;7.10;2.30;;;2.70;88.90;;;;;;5002566;28;20124;-80
2023/03/15 03:35:25;;;;;;;7.90;2.50;;;2.70;89.00;;;;;;5031843;28;20157;-82
2023/03/15 03:37:52;;;;;;;8.07;2.60;;;2.70;89.10;;;;;;4995155;28;20244;-80
2023/03/15 03:40:17;;;;;;;6.22;2.47;;;2.70;89.00;;;;;;5027801;28;20026;-81
2023/03/15 03:42:43;;;;;;;5.65;2.00;;;2.70;89.10;;;;;;4996606;28;20036;-80
2023/03/15 03:45:09;;;;;;;5.15;2.50;;;2.60;89.00;;;;;;5018776;28;20083;-80
2023/03/15 03:47:35;;;;;;;8.25;2.60;;;2.60;89.00;;;;;;5001717;28;20083;-81
2023/03/15 03:50:00;;;;;;;5.90;2.63;;;2.60;89.00;;;;;;4995139;28;20036;-80
2023/03/15 03:52:26;;;;;;;6.72;2.40;;;2.60;89.80;;;;;;5016067;28;20090;-80
2023/03/15 03:54:51;;;;;;;7.28;2.38;;;2.60;89.00;;;;;;5008845;28;20108;-79
2023/03/15 03:57:17;;;;;;;5.85;2.10;;;2.60;89.10;;;;;;5024893;28;20120;-79
2023/03/15 03:59:42;;;;;;;3.58;1.92;;;2.50;89.10;;;;;;5030449;28;20043;-81
2023/03/15 04:02:08;;;;;;;10.18;2.38;;;2.50;89.10;;;;;;5031950;28;20651;-80
2023/03/15 04:04:33;;;;;;;5.18;1.83;;;2.50;89.10;;;;;;5028399;28;20045;-80
2023/03/15 04:06:59;;;;;;;6.38;2.30;;;2.50;89.10;;;;;;5029374;28;20060;-80
2023/03/15 04:09:24;;;;;;;4.93;2.10;;;2.50;89.10;;;;;;5021004;28;20521;-82
2023/03/15 04:11:50;;;;;;;2.85;1.88;;;2.50;89.20;;;;;;4993998;28;20044;-79
2023/03/15 04:14:15;;;;;;;7.38;2.28;;;2.50;89.10;;;;;;5013763;28;20143;-79
2023/03/15 04:16:41;;;;;;;5.65;1.90;;;2.40;89.10;;;;;;5017098;28;20179;-82
2023/03/15 04:19:07;;;;;;;8.02;2.53;;;2.40;89.10;;;;;;4991275;28;20173;-81
2023/03/15 04:21:32;;;;;;;7.07;2.17;;;2.40;89.10;;;;;;5007077;28;20648;-80
2023/03/15 04:23:58;;;;;;;4.53;2.13;;;2.40;89.10;;;;;;5014042;28;20755;-80
2023/03/15 04:26:25;;;;;;;8.45;1.70;;;2.40;89.10;;;;;;4960503;28;20235;-81
2023/03/15 04:28:54;;;;;;;7.43;2.55;;;2.30;89.10;;;;;;4971190;28;20148;-78
2023/03/15 04:31:20;;;;;;;6.90;2.10;;;2.30;89.00;;;;;;4999779;28;20050;-82
2023/03/15 04:33:45;;;;;;;3.38;1.85;;;2.30;89.00;;;;;;4970886;28;20040;-81
2023/03/15 04:36:17;;;;;;;8.23;2.97;;;2.20;89.00;;;;;;4999136;28;20567;-80
2023/03/15 04:38:45;;;;;;;7.70;2.25;;;2.20;89.10;;;;;;5016999;28;20048;-79
2023/03/15 04:41:12;;;;;;;7.25;3.00;;;2.20;89.10;;;;;;5012732;28;20557;-81
2023/03/15 04:43:37;;;;;;;7.55;2.20;;;2.10;89.10;;;;;;4975827;28;20710;-80
2023/03/15 04:46:03;;;;;;;8.93;2.40;;;2.10;89.10;;;;;;4990880;28;20120;-82
2023/03/15 04:48:28;;;;;;;4.35;2.13;;;2.10;89.20;;;;;;4998477;28;20104;-81
2023/03/15 04:50:54;;;;;;;7.43;1.90;;;2.10;89.20;;;;;;4972066;28;20037;-79
2023/03/15 04:53:19;;;;;;;5.68;2.20;;;2.10;89.20;;;;;;4993911;28;20516;-80
2023/03/15 04:55:45;;;;;;;5.28;1.92;;;2.00;89.20;;;;;;5021583;28;20030;-80
2023/03/15 04:58:10;;;;;;;6.20;2.05;;;2.00;89.30;;;;;;5001256;28;20094;-78
2023/03/15 05:00:36;;;;;;;10.25;2.30;;;2.00;89.30;;;;;;4984093;28;20120;-81
2023/03/15 05:03:01;;;;;;;8.77;1.95;;;2.00;89.40;;;;;;5014324;28;20133;-80
2023/03/15 05:05:28;;;;;;;3.00;1.83;;;2.00;89.40;;;;;;5024120;28;20042;-80
2023/03/15 05:07:53;;;;;;;6.20;1.88;;;2.00;89.50;;;;;;5047185;28;20202;-81
2023/03/15 05:10:19;;;;;;;6.57;1.80;;;2.00;89.50;;;;;;5024326;28;20952;-82
2023/03/15 05:12:44;;;;;;;4.88;1.95;;;2.00;89.50;;;;;;5033592;28;20055;-80
2023/03/15 05:15:10;;;;;;;5.05;1.90;;;2.00;89.50;;;;;;5025383;28;20047;-81
2023/03/15 05:17:36;;;;;;;5.60;1.98;;;2.00;89.60;;;;;;5022259;28;20037;-78
2023/03/15 05:20:06;;;;;;;7.32;2.10;;;2.00;89.60;;;;;;5034932;28;20041;-80
2023/03/15 05:22:32;;;;;;;2.75;1.50;;;2.00;89.60;;;;;;5037955;28;20062;-82
2023/03/15 05:24:57;;;;;;;3.67;1.63;;;2.00;89.60;;;;;;5042753;28;20515;-79
2023/03/15 05:27:23;;;;;;;6.35;2.08;;;1.90;89.60;;;;;;5027772;28;20098;-79
2023/03/15 05:29:50;;;;;;;4.57;1.38;;;1.90;89.70;;;;;;5056238;28;20044;-79
2023/03/15 05:32:15;;;;;;;6.03;2.10;;;1.90;89.60;;;;;;5042886;28;20037;-80
2023/03/15 05:34:41;;;;;;;3.92;2.17;;;1.90;89.60;;;;;;5055009;28;20062;-81
2023/03/15 05:37:07;;;;;;;4.65;1.52;;;1.90;89.70;;;;;;5015179;28;20041;-81
2023/03/15 05:39:33;;;;;;;9.10;1.77;;;1.90;89.70;;;;;;5029303;28;20056;-82
2023/03/15 05:41:59;;;;;;;2.88;1.40;;;1.90;89.80;;;;;;5024263;28;20091;-81
2023/03/15 05:44:25;;;;;;;3.95;1.50;;;1.90;89.80;;;;;;5044536;28;20099;-81
2023/03/15 05:46:50;;;;;;;4.35;1.73;;;1.80;89.70;;;;;;5030558;28;20462;-80
2023/03/15 05:49:16;;;;;;;3.83;2.17;;;1.80;89.70;;;;;;5030083;28;20276;-81
2023/03/15 05:51:42;;;;;;;6.20;2.83;;;1.80;89.70;;;;;;5027625;28;20036;-83
2023/03/15 05:54:08;;;;;;;9.32;3.22;;;1.80;89.80;;;;;;5039439;28;20051;-80
2023/03/15 05:56:33;;;;;;;6.05;2.60;;;1.80;89.80;;;;;;5015651;28;20056;-79
2023/03/15 05:59:01;;;;;;;4.68;1.90;;;1.80;89.80;;;;;;5055834;28;20071;-82
2023/03/15 06:01:27;;;;;;;9.57;2.58;;;1.80;89.90;;;;;;5021631;28;20046;-80
2023/03/15 06:03:52;;;;;;;4.75;2.25;;;1.80;89.90;;;;;;5006703;28;20092;-79
2023/03/15 06:06:18;;;;;;;9.20;2.40;;;1.80;90.00;;;;;;5012266;28;20072;-77
2023/03/15 06:08:43;;;;;;;7.70;1.98;;;1.90;90.00;;;;;;5020919;28;20040;-83
2023/03/15 06:11:09;;;;;;;8.30;2.10;;;1.90;90.00;;;;;;5037216;28;20051;-80
2023/03/15 06:13:35;;;;;;;4.40;2.00;;;1.90;90.00;;;;;;5008497;28;20044;-81
2023/03/15 06:16:00;;;;;;;11.80;2.42;;;1.90;90.00;;;;;;5017197;28;20039;-80
2023/03/15 06:18:26;;;;;;;7.35;1.98;;;1.90;90.00;;;;;;5033417;28;20037;-80
2023/03/15 06:20:51;;;;;;;5.43;2.53;;;2.00;90.00;;;;;;5035884;28;20033;-80
2023/03/15 06:23:17;;;;;;;5.40;2.47;;;2.00;90.10;;;;;;5042203;28;20079;-78
2023/03/15 06:25:42;;;;;;;7.30;2.28;;;2.00;90.10;;;;;;5000494;28;20036;-81
2023/03/15 06:28:08;;;;;;;15.43;3.38;;;2.00;90.00;;;;;;5029722;28;20040;-80
2023/03/15 06:30:34;;;;;;;7.00;2.60;;;2.00;90.00;;;;;;5036245;28;20079;-80
2023/03/15 06:33:00;;;;;;;9.00;3.33;;;2.10;90.10;;;;;;5022999;28;20147;-82
2023/03/15 06:35:25;;;;;;;11.77;3.72;;;2.10;90.10;;;;;;5018080;28;20172;-79
2023/03/15 06:37:51;;;;;;;5.13;2.47;;;2.10;90.10;;;;;;5038228;28;21503;-83
2023/03/15 06:40:17;;;;;;;7.43;4.00;;;2.10;90.00;;;;;;5020701;28;20040;-82
2023/03/15 06:42:42;;;;;;;20.65;7.70;;;2.20;90.10;;;;;;5014813;28;20292;-78
2023/03/15 06:45:08;;;;;;;146.75;52.33;;;2.20;90.10;;;;;;5019214;28;20725;-80
2023/03/15 06:47:34;;;;;;;25.52;10.73;;;2.20;90.10;;;;;;5050148;28;20040;-80
2023/03/15 06:49:59;;;;;;;14.98;6.13;;;2.20;90.10;;;;;;5018880;28;20043;-80
2023/03/15 06:52:25;;;;;;;9.77;3.10;;;2.20;90.10;;;;;;4998986;28;20067;-79
2023/03/15 06:54:50;;;;;;;72.72;26.77;;;2.30;90.10;;;;;;5026747;28;20857;-79
2023/03/15 06:57:16;;;;;;;18.40;7.72;;;2.30;90.10;;;;;;5023596;28;20048;-81
2023/03/15 06:59:41;;;;;;;24.10;8.32;;;2.30;90.10;;;;;;5036054;28;20041;-83
2023/03/15 07:02:14;;;;;;;11.70;5.03;;;2.30;90.10;;;;;;5033066;28;20116;-81
2023/03/15 07:04:40;;;;;;;34.80;11.63;;;2.40;90.10;;;;;;5013202;28;20070;-79
2023/03/15 07:07:06;;;;;;;27.35;12.07;;;2.40;90.10;;;;;;5052288;28;20041;-81
2023/03/15 07:09:31;;;;;;;44.38;14.90;;;2.40;90.10;;;;;;5034095;28;20044;-78
2023/03/15 07:11:57;;;;;;;69.32;21.52;;;2.50;90.20;;;;;;5030820;28;20082;-81
2023/03/15 07:14:22;;;;;;;27.40;9.60;;;2.60;90.20;;;;;;5029836;28;20178;-81
2023/03/15 07:16:48;;;;;;;21.58;7.18;;;2.70;90.10;;;;;;5042290;28;20114;-82
2023/03/15 07:19:13;;;;;;;34.83;11.63;;;2.70;90.10;;;;;;5036327;28;20044;-82
2023/03/15 07:21:39;;;;;;;48.83;12.70;;;2.80;90.00;;;;;;5020916;28;20510;-80
2023/03/15 07:24:04;;;;;;;28.92;9.18;;;2.80;90.00;;;;;;5031537;28;20044;-82
2023/03/15 07:26:30;;;;;;;25.13;6.63;;;2.80;90.00;;;;;;5016562;28;20678;-80
2023/03/15 07:28:55;;;;;;;16.75;4.88;;;2.80;89.90;;;;;;5017063;28;20037;-80
2023/03/15 07:31:21;;;;;;;17.25;5.82;;;2.80;89.80;;;;;;5004452;28;20024;-79
2023/03/15 07:33:47;;;;;;;95.30;22.27;;;2.70;90.00;;;;;;4997644;28;20040;-81
2023/03/15 07:36:12;;;;;;;77.68;17.20;;;2.70;89.90;;;;;;5024324;28;20044;-80
2023/03/15 07:38:38;;;;;;;42.00;11.13;;;2.70;89.90;;;;;;5019687;28;20025;-80
2023/03/15 07:41:04;;;;;;;39.20;11.85;;;2.70;90.00;;;;;;5015521;28;20523;-81
2023/03/15 07:43:30;;;;;;;321.48;81.13;;;2.70;90.00;;;;;;5004859;28;20112;-79
2023/03/15 07:45:55;;;;;;;130.07;33.45;;;2.70;90.00;;;;;;4998874;28;20144;-80
2023/03/15 07:48:21;;;;;;;50.67;14.95;;;2.70;90.00;;;;;;5018583;28;20037;-81
2023/03/15 07:50:46;;;;;;;18.50;6.82;;;2.70;90.10;;;;;;5002809;28;20040;-81
2023/03/15 07:53:12;;;;;;;54.22;25.95;;;2.70;90.10;;;;;;5006152;28;20811;-81
2023/03/15 07:55:38;;;;;;;30.92;10.65;;;2.60;90.00;;;;;;4996911;28;20037;-80
2023/03/15 07:58:03;;;;;;;13.88;6.30;;;2.60;90.10;;;;;;5014713;28;20110;-80
2023/03/15 08:00:29;;;;;;;20.17;9.18;;;2.60;90.10;;;;;;5033958;28;20120;-79
2023/03/15 08:02:54;;;;;;;9.80;4.75;;;2.70;90.10;;;;;;5015122;28;20052;-80
2023/03/15 08:05:20;;;;;;;13.93;5.65;;;2.70;90.10;;;;;;5017161;28;20056;-83
2023/03/15 08:07:46;;;;;;;6.78;3.47;;;2.70;90.20;;;;;;4985872;28;20033;-79
2023/03/15 08:10:12;;;;;;;14.10;4.80;;;2.70;90.20;;;;;;5012626;28;20499;-79
2023/03/15 08:12:39;;;;;;;12.52;4.75;;;2.70;90.20;;;;;;5005871;28;20047;-78
2023/03/15 08:15:05;;;;;;;14.48;4.97;;;2.70;90.20;;;;;;5039842;28;20044;-82
2023/03/15 08:17:31;;;;;;;5.55;2.53;;;2.70;90.20;;;;;;5019984;28;20049;-81
2023/03/15 08:19:56;;;;;;;8.98;2.50;;;2.70;90.20;;;;;;5056269;28;20032;-81
2023/03/15 08:22:22;;;;;;;5.07;2.03;;;2.80;90.20;;;;;;5051675;28;20199;-80
2023/03/15 08:24:49;;;;;;;8.32;2.88;;;2.80;90.20;;;;;;5035504;28;20066;-80
2023/03/15 08:27:14;;;;;;;3.35;1.95;;;2.80;90.30;;;;;;5024310;28;20051;-81
2023/03/15 08:29:40;;;;;;;4.05;2.40;;;2.80;90.30;;;;;;5029035;28;20037;-80
2023/03/15 08:32:06;;;;;;;13.25;2.35;;;2.80;90.30;;;;;;4983683;28;20045;-79
2023/03/15 08:34:33;;;;;;;2.90;1.85;;;2.90;90.30;;;;;;5041629;28;20039;-80
2023/03/15 08:36:58;;;;;;;4.60;2.20;;;2.90;90.30;;;;;;4995613;28;20042;-82
2023/03/15 08:39:24;;;;;;;3.10;1.77;;;3.00;90.30;;;;;;5003662;28;20611;-80
2023/03/15 08:41:50;;;;;;;2.35;1.65;;;3.00;90.30;;;;;;5003783;28;20516;-78
2023/03/15 08:44:15;;;;;;;3.88;1.63;;;3.00;90.30;;;;;;5037055;28;20033;-79
2023/03/15 08:46:41;;;;;;;3.75;1.65;;;3.00;90.30;;;;;;5016181;28;20829;-80
2023/03/15 08:49:06;;;;;;;5.20;1.75;;;3.00;90.30;;;;;;5039206;28;20036;-79
2023/03/15 08:51:32;;;;;;;5.15;1.65;;;3.00;90.30;;;;;;5034509;28;20036;-78
2023/03/15 08:53:58;;;;;;;5.43;3.08;;;3.10;90.30;;;;;;5017426;28;20036;-80
2023/03/15 08:56:23;;;;;;;5.47;2.25;;;3.10;90.30;;;;;;5008605;28;20038;-81
2023/03/15 08:58:49;;;;;;;2.50;1.50;;;3.10;90.30;;;;;;5013982;28;20029;-79
2023/03/15 09:01:15;;;;;;;5.68;2.70;;;3.20;90.30;;;;;;5020115;28;20064;-79
2023/03/15 09:03:41;;;;;;;2.65;1.50;;;3.20;90.30;;;;;;4998548;28;20066;-81
2023/03/15 09:06:07;;;;;;;3.30;1.90;;;3.20;90.30;;;;;;4987462;28;20148;-81
2023/03/15 09:08:32;;;;;;;2.53;1.48;;;3.20;90.30;;;;;;4984281;28;20156;-80
2023/03/15 09:10:58;;;;;;;2.70;1.70;;;3.30;90.30;;;;;;5017510;28;20501;-82
2023/03/15 09:13:24;;;;;;;3.53;2.00;;;3.30;90.30;;;;;;5015910;28;20140;-79
2023/03/15 09:15:52;;;;;;;3.55;1.65;;;3.30;90.30;;;;;;5016317;28;21294;-80
2023/03/15 09:18:18;;;;;;;2.95;1.88;;;3.30;90.30;;;;;;5019892;28;20088;-79
2023/03/15 09:20:44;;;;;;;4.38;1.42;;;3.40;90.30;;;;;;4990396;28;20046;-79
2023/03/15 09:23:10;;;;;;;3.33;1.70;;;3.40;90.30;;;;;;5015309;28;20128;-80
2023/03/15 09:25:38;;;;;;;3.13;2.03;;;3.40;90.30;;;;;;5003414;28;20047;-79
2023/03/15 09:28:05;;;;;;;4.32;1.60;;;3.40;90.30;;;;;;4997783;28;20037;-79
2023/03/15 09:30:30;;;;;;;2.45;1.35;;;3.40;90.30;;;;;;4999722;28;20077;-81
2023/03/15 09:32:56;;;;;;;5.05;2.88;;;3.50;90.30;;;;;;4998588;28;20072;-80
2023/03/15 09:35:21;;;;;;;4.25;1.70;;;3.50;90.30;;;;;;4990935;28;20042;-83
2023/03/15 09:37:47;;;;;;;8.23;1.90;;;3.50;90.30;;;;;;5029467;28;20072;-78
2023/03/15 09:40:24;;;;;;;2.28;1.65;;;3.50;90.30;;;;;;5014422;28;20053;-79
2023/03/15 09:43:00;;;;;;;3.95;2.00;;;3.50;90.30;;;;;;4998332;28;20034;-82
2023/03/15 09:45:45;;;;;;;3.55;2.08;;;3.60;90.30;;;;;;5016855;28;20054;-79
2023/03/15 09:48:31;;;;;;;8.00;2.88;;;3.60;90.30;;;;;;5015502;28;20030;-80
2023/03/15 09:51:13;;;;;;;8.07;2.28;;;3.60;90.30;;;;;;4996879;28;20037;-79
2023/03/15 09:53:44;;;;;;;4.70;2.03;;;3.60;90.20;;;;;;5028366;28;20511;-81
2023/03/15 09:56:19;;;;;;;;;;;3.60;90.20;;;;;;5029113;28;20041;-82
2023/03/15 09:58:45;;;;;;;6.75;2.40;;;3.70;90.30;;;;;;5023043;28;19931;-80
2023/03/15 10:01:11;;;;;;;4.28;1.90;;;3.70;90.20;;;;;;5019095;28;20038;-81
2023/03/15 10:03:50;;;;;;;4.03;1.80;;;3.70;90.20;;;;;;5004316;28;20033;-81
2023/03/15 10:06:26;;;;;;;2.90;1.95;;;3.70;90.30;;;;;;5020993;28;20616;-81
2023/03/15 10:08:59;;;;;;;4.22;1.98;;;3.70;90.20;;;;;;5034572;28;20033;-80
2023/03/15 10:11:36;;;;;;;6.93;3.35;;;3.80;90.30;;;;;;5020946;28;20049;-82
2023/03/15 10:14:16;;;;;;;6.30;2.53;;;3.80;90.20;;;;;;5033142;28;20048;-80
2023/03/15 10:16:42;;;;;;;11.60;4.60;;;3.80;90.20;;;;;;5033933;28;20045;-78
2023/03/15 10:19:16;;;;;;;10.10;4.60;;;3.90;90.20;;;;;;5033344;28;20053;-82
2023/03/15 10:21:56;;;;;;;4.50;2.83;;;3.90;90.20;;;;;;5032899;28;20045;-82
2023/03/15 10:24:44;;;;;;;5.82;3.22;;;3.90;90.20;;;;;;5022829;28;20537;-81
2023/03/15 10:27:25;;;;;;;8.23;3.22;;;3.90;90.20;;;;;;5035199;28;20056;-81
2023/03/15 10:29:53;;;;;;;9.43;4.60;;;4.00;90.20;;;;;;5031880;28;20284;-80
2023/03/15 10:32:21;;;;;;;7.68;3.85;;;4.00;90.20;;;;;;5008425;28;20086;-80
2023/03/15 10:34:48;;;;;;;7.72;2.95;;;4.00;90.20;;;;;;5037793;28;20041;-79
2023/03/15 10:37:14;;;;;;;3.92;2.42;;;4.00;90.20;;;;;;5037969;28;20150;-79
2023/03/15 10:39:45;;;;;;;8.05;3.35;;;4.10;90.20;;;;;;5033126;28;20120;-79
2023/03/15 10:42:26;;;;;;;4.90;2.67;;;4.10;90.20;;;;;;5021179;28;20045;-79
2023/03/15 10:44:51;;;;;;;5.05;2.55;;;4.20;90.30;;;;;;5037584;28;20047;-81
2023/03/15 10:47:18;;;;;;;4.78;2.60;;;4.20;90.20;;;;;;5018466;28;20034;-81
2023/03/15 10:49:44;;;;;;;5.00;2.53;;;4.20;90.20;;;;;;5002106;28;20036;-79
2023/03/15 10:52:33;;;;;;;4.15;2.60;;;4.30;90.20;;;;;;5031231;28;20021;-81
2023/03/15 10:55:00;;;;;;;5.45;2.65;;;4.30;90.20;;;;;;5032849;28;20033;-79
2023/03/15 10:57:27;;;;;;;11.07;3.90;;;4.40;90.20;;;;;;5038572;28;20044;-80
2023/03/15 10:59:56;;;;;;;7.43;3.17;;;4.40;90.20;;;;;;5017234;28;20120;-80
2023/03/15 11:02:22;;;;;;;5.45;2.60;;;4.40;90.20;;;;;;5018180;28;20424;-81
2023/03/15 11:04:57;;;;;;;6.13;3.28;;;4.40;90.10;;;;;;5017020;28;20124;-82
2023/03/15 11:07:24;;;;;;;5.55;2.60;;;4.50;90.10;;;;;;5020548;28;20052;-80
2023/03/15 11:09:54;;;;;;;4.82;2.90;;;4.50;90.10;;;;;;5020674;28;20033;-81
2023/03/15 11:12:26;;;;;;;4.88;2.45;;;4.50;90.10;;;;;;5027894;28;20172;-81
2023/03/15 11:15:02;;;;;;;9.10;4.22;;;4.60;90.10;;;;;;5031799;28;20091;-81
2023/03/15 11:17:32;;;;;;;6.82;3.60;;;4.60;90.10;;;;;;5026707;28;20045;-81
2023/03/15 11:20:30;;;;;;;5.40;3.28;;;4.60;90.10;;;;;;5034474;28;20045;-80
2023/03/15 11:22:57;;;;;;;7.88;3.50;;;4.70;90.10;;;;;;5029778;28;20045;-79
2023/03/15 11:25:25;;;;;;;3.20;2.40;;;4.70;90.00;;;;;;5001458;28;20115;-82
2023/03/15 11:27:52;;;;;;;4.05;2.63;;;4.70;90.00;;;;;;5034021;28;20037;-80
2023/03/15 11:30:18;;;;;;;8.02;2.92;;;4.70;90.00;;;;;;5034368;28;20040;-81
2023/03/15 11:32:44;;;;;;;5.30;3.17;;;4.80;90.00;;;;;;5012402;28;20581;-80
2023/03/15 11:35:14;;;;;;;5.63;3.30;;;4.80;90.00;;;;;;5036351;28;20041;-81
2023/03/15 11:37:56;;;;;;;4.45;2.80;;;4.90;90.00;;;;;;5033713;28;20414;-81
2023/03/15 11:40:24;;;;;;;3.97;2.35;;;4.90;90.00;;;;;;5005580;28;20102;-80
2023/03/15 11:43:00;;;;;;;5.32;3.05;;;4.90;90.00;;;;;;5036877;28;20056;-79
2023/03/15 11:45:32;;;;;;;5.35;2.95;;;5.00;90.00;;;;;;5011144;28;20053;-80
2023/03/15 11:48:00;;;;;;;7.80;3.97;;;5.00;89.90;;;;;;5020070;28;20047;-81
2023/03/15 11:50:26;;;;;;;4.38;2.78;;;5.10;89.90;;;;;;5018176;28;20041;-82
2023/03/15 11:52:51;;;;;;;5.90;2.63;;;5.10;89.90;;;;;;5021997;28;20343;-82
2023/03/15 11:55:23;;;;;;;6.75;2.40;;;5.20;90.00;;;;;;5014576;28;20029;-80
2023/03/15 11:57:49;;;;;;;5.38;2.15;;;5.40;90.00;;;;;;5020928;28;20116;-79
2023/03/15 12:00:38;;;;;;;3.70;2.70;;;5.50;90.00;;;;;;5015326;28;20032;-79
2023/03/15 12:03:39;;;;;;;4.05;2.13;;;5.60;89.90;;;;;;5021108;28;22685;-80
2023/03/15 12:06:11;;;;;;;9.35;3.10;;;5.70;89.50;;;;;;5025051;28;20515;-78
2023/03/15 12:08:43;;;;;;;4.45;2.55;;;5.80;89.30;;;;;;5039982;28;20097;-80
2023/03/15 12:11:12;;;;;;;3.15;2.35;;;5.80;89.20;;;;;;5047459;28;20043;-82
2023/03/15 12:13:38;;;;;;;2.85;1.75;;;5.80;89.00;;;;;;5008952;28;20036;-82
2023/03/15 12:16:05;;;;;;;3.22;2.08;;;5.80;88.90;;;;;;5010981;28;20197;-79
2023/03/15 12:18:43;;;;;;;6.95;2.75;;;5.80;88.80;;;;;;5018250;28;20032;-81
2023/03/15 12:21:33;;;;;;;3.75;2.20;;;5.90;88.80;;;;;;5021733;28;20147;-81
2023/03/15 12:24:05;;;;;;;3.78;2.50;;;5.90;88.80;;;;;;5004906;28;20537;-81
2023/03/15 12:26:41;;;;;;;3.15;2.58;;;6.00;88.80;;;;;;5002966;28;20064;-82
2023/03/15 12:29:12;;;;;;;3.15;2.13;;;6.00;88.60;;;;;;5006939;28;20225;-80
2023/03/15 12:32:06;;;;;;;4.13;2.35;;;6.10;88.50;;;;;;5019163;28;20342;-81
2023/03/15 12:34:46;;;;;;;4.30;2.15;;;6.10;88.40;;;;;;5024855;28;20096;-81
2023/03/15 12:37:23;;;;;;;2.33;1.92;;;6.10;88.40;;;;;;5016485;28;20082;-79
2023/03/15 12:39:51;;;;;;;1.95;1.65;;;6.10;88.30;;;;;;5035583;28;20040;-80
2023/03/15 12:42:29;;;;;;;3.72;1.90;;;6.20;88.30;;;;;;5030504;28;20060;-80
2023/03/15 12:45:14;;;;;;;2.38;1.45;;;6.20;88.00;;;;;;5047307;28;20052;-80
2023/03/15 12:47:48;;;;;;;3.80;1.52;;;6.20;88.00;;;;;;5008604;28;20564;-82
2023/03/15 12:50:42;;;;;;;2.22;1.50;;;6.20;87.90;;;;;;5027486;28;20045;-80
2023/03/15 12:53:21;;;;;;;1.67;1.50;;;6.30;87.70;;;;;;5032068;28;20045;-81
2023/03/15 12:55:46;;;;;;;2.63;1.63;;;6.30;87.70;;;;;;5014729;28;20041;-80
2023/03/15 12:58:12;;;;;;;2.53;1.80;;;6.30;87.60;;;;;;5009758;28;20038;-82
2023/03/15 13:00:39;;;;;;;3.58;1.83;;;6.30;87.50;;;;;;5008188;28;20045;-81